Hlavní strana
METAR-TAF:

METAR-TAF

Letiště :

Letiště Kunovice

Uherské Hradiště, Česká republika

zeměpisná šířka: 49-01-46N, zeměpisná délka: 017-26-23E, výška: 177 m

Aktuální stav počasí

Zpráva byla vytvořena před 1 hodinou a 0 minutami, v 10:00 UTC
Jihojihozápadní vítr 8 kt, proměnlivý mezi jižním a západním
Teplota 32°C
Vlhkost vzduchu 29%
Tlak 1016 hPa
Viditelnost 10 km a více
Žádná oblačnost pod 1500 m, nevyskytují se cumulonimby.

METAR: LKKU 201000Z 21008KT 170V260 CAVOK 32/12 Q1016

Čas: 13:00 (11:00 UTC)


TAF: chybějící

Stav a předpovědi počasí z více než 4 000 letišť (zprávy METAR a TAF).

Červené a žluté tečky na mapě představují dostupné meteorologické stanice.

Když kurzor umístíte na tečku, zobrazí se název stanice.

Pak kliknutím zobrazíte stav a předpověď počasí.

Chcete-li změnit mapu, kliknutím na zelené tlačítko se znaménkem +mapu přiblížíte, kliknutím na zelené tlačítko se znaménkem – mapu oddálíte a kliknutím na zelené šipky přejdete na sousední mapy.


METAR-TAF: